Terminal Aerodrome Forecast
Issued by NWS Memphis, TN

Home | Current Version | Previous Version | Text Only | Print | Product List | Glossary On
Versions: 1 2 3 4 5 6 7 8 9 10 11 12 13 14 15 16 17 18 19 20 21 22 23 24 25
000
FTUS44 KMEG 310900 AAA
TAFMEM
TAF AMD
KMEM 310903Z 3109/0106 05003KT P6SM VCSH BKN050 OVC150
     FM311500 23005KT P6SM BKN060 OVC100
     FM010000 13005KT P6SM BKN060 BKN120=

USA.gov is the U.S. government's official web portal to all federal, state and local government web resources and services.